Time;durP1;ratioP1;P1;durP2;ratioP2;P2;SDS_P1;SDS_P2;PMS_P1;PMS_P2;Temp;Humidity;BMP_temperature;BMP_pressure;BME280_temperature;BME280_humidity;BME280_pressure;Samples;Min_cycle;Max_cycle;Signal;HPM_P1;HPM_P2
2022/10/14 00:01:09;;;;;;;29.43;21.40;;;13.50;99.90;;;;;;4992026;28;20210;-83
2022/10/14 00:03:37;;;;;;;32.90;21.53;;;13.50;99.90;;;;;;5007374;28;20233;-83
2022/10/14 00:06:11;;;;;;;33.80;22.73;;;13.50;99.90;;;;;;4992822;28;20557;-83
2022/10/14 00:08:39;;;;;;;32.90;22.03;;;13.50;99.90;;;;;;5002177;28;20223;-83
2022/10/14 00:11:08;;;;;;;31.77;22.40;;;13.50;99.90;;;;;;4994903;28;20329;-83
2022/10/14 00:13:36;;;;;;;32.40;22.53;;;13.50;99.90;;;;;;4990477;28;20218;-83
2022/10/14 00:16:04;;;;;;;33.87;22.53;;;13.60;99.90;;;;;;4989084;28;20318;-84
2022/10/14 00:18:31;;;;;;;34.47;23.63;;;13.60;99.90;;;;;;5005686;28;20549;-83
2022/10/14 00:21:01;;;;;;;34.37;24.23;;;13.70;99.90;;;;;;4996717;28;20219;-83
2022/10/14 00:23:28;;;;;;;35.57;24.23;;;13.60;99.90;;;;;;5003446;28;20236;-82
2022/10/14 00:25:54;;;;;;;40.30;24.23;;;13.70;99.90;;;;;;4991062;28;20260;-83
2022/10/14 00:28:21;;;;;;;34.27;22.93;;;13.70;99.90;;;;;;4993310;28;20210;-82
2022/10/14 00:30:56;;;;;;;36.50;23.27;;;13.70;99.90;;;;;;4982635;28;20578;-83
2022/10/14 00:33:23;;;;;;;35.67;24.03;;;13.70;99.90;;;;;;4977633;28;20226;-82
2022/10/14 00:35:59;;;;;;;34.67;23.73;;;13.60;99.90;;;;;;4992637;28;20195;-83
2022/10/14 00:38:26;;;;;;;35.37;24.20;;;13.60;99.90;;;;;;4985676;28;20589;-84
2022/10/14 00:40:54;;;;;;;38.00;23.63;;;13.60;99.90;;;;;;4991249;28;20621;-84
2022/10/14 00:43:22;;;;;;;33.17;24.53;;;13.60;99.90;;;;;;5008449;28;20214;-83
2022/10/14 00:45:49;;;;;;;34.87;22.10;;;13.70;99.90;;;;;;4991617;28;20237;-85
2022/10/14 00:48:19;;;;;;;32.90;22.63;;;13.70;99.90;;;;;;4960417;28;20222;-84
2022/10/14 00:50:50;;;;;;;32.33;22.93;;;13.80;99.90;;;;;;4991286;28;20207;-83
2022/10/14 00:53:18;;;;;;;34.83;23.87;;;13.80;99.90;;;;;;4991627;28;20203;-83
2022/10/14 00:55:46;;;;;;;36.10;23.67;;;13.80;99.90;;;;;;5002146;28;20705;-83
2022/10/14 00:58:14;;;;;;;37.53;22.87;;;13.80;99.90;;;;;;5005641;28;20217;-83
2022/10/14 01:00:41;;;;;;;33.83;22.73;;;13.80;99.90;;;;;;4977220;28;20216;-83
2022/10/14 01:03:16;;;;;;;35.80;22.77;;;13.80;99.90;;;;;;5005284;28;20214;-84
2022/10/14 01:05:54;;;;;;;35.40;22.80;;;13.80;99.90;;;;;;4990801;28;20206;-83
2022/10/14 01:08:35;;;;;;;38.20;22.63;;;13.80;99.90;;;;;;4991274;28;20250;-84
2022/10/14 01:11:11;;;;;;;35.07;21.77;;;13.80;99.90;;;;;;4987459;28;20290;-84
2022/10/14 01:13:50;;;;;;;31.97;20.93;;;13.80;99.90;;;;;;4993521;28;20200;-84
2022/10/14 01:16:30;;;;;;;34.30;22.20;;;13.80;99.90;;;;;;4992718;28;20564;-82
2022/10/14 01:19:47;;;;;;;32.87;22.27;;;13.80;99.90;;;;;;4986218;28;20207;-83
2022/10/14 01:22:17;;;;;;;32.60;20.77;;;13.80;99.90;;;;;;4986603;28;20666;-83
2022/10/14 01:25:06;;;;;;;33.13;22.83;;;13.70;99.90;;;;;;4990731;28;20217;-84
2022/10/14 01:28:07;;;;;;;29.30;20.33;;;13.70;99.90;;;;;;4977515;28;20607;-83
2022/10/14 01:30:44;;;;;;;32.40;20.60;;;13.70;99.90;;;;;;4993790;28;20294;-84
2022/10/14 01:33:24;;;;;;;31.10;20.90;;;13.70;99.90;;;;;;4984778;28;20214;-85
2022/10/14 01:36:12;;;;;;;31.23;21.47;;;13.70;99.90;;;;;;4993062;28;20676;-84
2022/10/14 01:38:58;;;;;;;33.07;20.23;;;13.70;99.90;;;;;;4987572;28;20230;-84
2022/10/14 01:42:02;;;;;;;30.50;20.53;;;13.60;99.90;;;;;;4994124;28;20223;-84
2022/10/14 01:44:31;;;;;;;29.33;19.90;;;13.70;99.90;;;;;;4996607;28;20211;-84
2022/10/14 01:47:01;;;;;;;32.50;21.20;;;13.70;99.90;;;;;;4994313;28;20808;-84
2022/10/14 01:49:40;;;;;;;28.70;19.13;;;13.70;99.90;;;;;;4994123;28;20219;-84
2022/10/14 01:52:21;;;;;;;32.67;19.37;;;13.80;99.90;;;;;;4989851;28;20237;-83
2022/10/14 01:54:52;;;;;;;30.47;18.87;;;13.70;99.90;;;;;;4978360;28;20293;-83
2022/10/14 01:57:23;;;;;;;28.93;18.33;;;13.70;99.90;;;;;;4993709;28;20223;-82
2022/10/14 01:59:52;;;;;;;32.57;18.80;;;13.80;99.90;;;;;;4987830;28;20209;-83
2022/10/14 02:02:20;;;;;;;29.43;20.00;;;13.70;99.90;;;;;;4977391;28;20286;-82
2022/10/14 02:04:47;;;;;;;29.70;17.93;;;13.60;99.90;;;;;;5002948;28;20218;-82
2022/10/14 02:07:24;;;;;;;27.47;18.63;;;13.60;99.90;;;;;;5001062;28;20293;-82
2022/10/14 02:10:09;;;;;;;26.70;18.37;;;13.60;99.90;;;;;;4990186;28;20194;-82
2022/10/14 02:13:10;;;;;;;30.20;17.77;;;13.70;99.90;;;;;;5004092;28;20191;-82
2022/10/14 02:15:58;;;;;;;31.73;18.10;;;13.80;99.90;;;;;;4988407;28;20200;-82
2022/10/14 02:18:43;;;;;;;27.23;17.83;;;13.80;99.90;;;;;;5003531;28;20196;-83
2022/10/14 02:21:36;;;;;;;28.53;17.53;;;13.80;99.90;;;;;;4997865;28;20226;-84
2022/10/14 02:24:20;;;;;;;27.33;17.90;;;13.90;99.90;;;;;;5004894;28;20658;-82
2022/10/14 02:26:49;;;;;;;31.53;17.13;;;13.80;99.90;;;;;;4987888;28;20206;-82
2022/10/14 02:29:21;;;;;;;31.40;18.73;;;13.90;99.90;;;;;;5003393;28;20209;-84
2022/10/14 02:31:49;;;;;;;27.37;19.00;;;13.90;99.90;;;;;;4982472;28;20207;-83
2022/10/14 02:34:19;;;;;;;28.33;19.03;;;13.90;99.90;;;;;;4974562;28;20217;-82
2022/10/14 02:36:47;;;;;;;29.00;17.80;;;13.90;99.90;;;;;;4998841;28;20565;-83
2022/10/14 02:39:20;;;;;;;28.87;17.93;;;13.90;99.90;;;;;;4985882;28;20658;-83
2022/10/14 02:41:47;;;;;;;23.90;17.00;;;13.90;99.90;;;;;;4979645;28;20223;-85
2022/10/14 02:44:15;;;;;;;26.53;18.43;;;13.80;99.90;;;;;;4990206;28;20287;-82
2022/10/14 02:46:42;;;;;;;30.07;18.23;;;13.80;99.90;;;;;;4991610;28;20237;-82
2022/10/14 02:49:09;;;;;;;27.80;18.13;;;13.80;99.90;;;;;;4988457;28;20207;-81
2022/10/14 02:51:35;;;;;;;29.83;18.67;;;13.90;99.90;;;;;;4983463;28;20860;-82
2022/10/14 02:54:02;;;;;;;27.70;17.63;;;13.90;99.90;;;;;;4988137;28;20207;-82
2022/10/14 02:56:29;;;;;;;27.67;18.33;;;13.90;99.90;;;;;;4986808;28;20287;-82
2022/10/14 02:58:58;;;;;;;27.10;17.90;;;13.90;99.90;;;;;;5003141;28;20286;-82
2022/10/14 03:01:24;;;;;;;24.90;16.93;;;14.00;99.90;;;;;;4971728;28;20220;-81
2022/10/14 03:03:51;;;;;;;29.57;18.40;;;14.00;99.90;;;;;;4988207;28;20262;-82
2022/10/14 03:06:19;;;;;;;35.70;18.33;;;14.00;99.90;;;;;;4986472;28;20293;-82
2022/10/14 03:08:46;;;;;;;28.73;18.33;;;14.00;99.90;;;;;;4967301;28;20585;-82
2022/10/14 03:11:13;;;;;;;30.23;18.47;;;14.00;99.90;;;;;;4987283;28;20203;-82
2022/10/14 03:13:40;;;;;;;29.03;18.93;;;14.00;99.90;;;;;;4973067;28;20540;-82
2022/10/14 03:16:07;;;;;;;26.77;18.43;;;14.00;99.90;;;;;;4994020;28;20293;-82
2022/10/14 03:18:34;;;;;;;28.90;18.60;;;14.00;99.90;;;;;;4991415;28;20681;-83
2022/10/14 03:21:01;;;;;;;30.33;18.77;;;13.90;99.90;;;;;;4993158;28;20636;-83
2022/10/14 03:23:28;;;;;;;30.50;17.80;;;13.90;99.90;;;;;;4973338;28;20199;-83
2022/10/14 03:25:55;;;;;;;27.83;18.00;;;14.00;99.90;;;;;;4995635;28;20208;-84
2022/10/14 03:28:22;;;;;;;31.87;19.73;;;13.90;99.90;;;;;;5012654;28;20289;-82
2022/10/14 03:30:49;;;;;;;29.50;18.80;;;13.90;99.90;;;;;;4997129;28;20201;-82
2022/10/14 03:33:15;;;;;;;28.67;18.17;;;14.00;99.90;;;;;;5011818;28;20568;-84
2022/10/14 03:35:46;;;;;;;28.77;18.63;;;13.90;99.90;;;;;;4994465;28;20199;-84
2022/10/14 03:38:13;;;;;;;30.27;19.33;;;14.00;99.90;;;;;;4989257;28;20783;-83
2022/10/14 03:40:40;;;;;;;27.37;18.10;;;13.90;99.90;;;;;;4994432;28;20219;-82
2022/10/14 03:43:06;;;;;;;26.90;18.07;;;14.00;99.90;;;;;;4982719;28;20204;-83
2022/10/14 03:45:33;;;;;;;29.67;17.70;;;13.90;99.90;;;;;;4990679;28;20238;-83
2022/10/14 03:48:00;;;;;;;25.53;17.77;;;14.00;99.90;;;;;;4995611;28;20209;-84
2022/10/14 03:50:27;;;;;;;27.73;18.33;;;14.00;99.90;;;;;;4990433;28;20299;-83
2022/10/14 03:52:54;;;;;;;28.13;18.60;;;13.90;99.90;;;;;;4993642;28;20290;-83
2022/10/14 03:55:22;;;;;;;34.13;18.87;;;13.90;99.90;;;;;;5009975;28;20637;-82
2022/10/14 03:57:49;;;;;;;35.07;18.87;;;14.00;99.90;;;;;;5006753;28;20219;-82
2022/10/14 04:00:16;;;;;;;32.70;19.60;;;13.90;99.90;;;;;;4995139;28;20539;-81
2022/10/14 04:02:43;;;;;;;34.80;19.33;;;13.80;99.90;;;;;;4996042;28;20200;-82
2022/10/14 04:05:10;;;;;;;34.13;19.10;;;13.80;99.90;;;;;;4992664;28;20229;-82
2022/10/14 04:07:37;;;;;;;36.97;18.83;;;13.80;99.90;;;;;;5008489;28;20286;-83
2022/10/14 04:10:04;;;;;;;32.27;19.27;;;13.90;99.90;;;;;;4992020;28;20202;-83
2022/10/14 04:12:32;;;;;;;34.10;18.27;;;13.90;99.90;;;;;;4995146;28;20202;-82
2022/10/14 04:14:58;;;;;;;30.63;18.73;;;13.90;99.90;;;;;;4992017;28;20631;-82
2022/10/14 04:17:25;;;;;;;34.13;19.33;;;13.90;99.90;;;;;;4993608;28;20300;-82
2022/10/14 04:19:52;;;;;;;30.23;17.33;;;13.90;99.90;;;;;;5008690;28;20277;-81
2022/10/14 04:22:21;;;;;;;33.07;17.87;;;13.90;99.90;;;;;;4993757;28;20249;-82
2022/10/14 04:24:49;;;;;;;32.87;17.23;;;13.90;99.90;;;;;;4995797;28;20285;-83
2022/10/14 04:27:16;;;;;;;29.03;17.57;;;13.90;99.90;;;;;;4989491;28;20220;-83
2022/10/14 04:29:43;;;;;;;27.77;17.57;;;13.90;99.90;;;;;;4987065;28;20194;-82
2022/10/14 04:32:10;;;;;;;31.87;17.97;;;13.90;99.90;;;;;;4991434;28;20213;-83
2022/10/14 04:34:37;;;;;;;30.30;16.97;;;13.90;99.90;;;;;;4990619;28;20290;-81
2022/10/14 04:37:04;;;;;;;37.37;17.60;;;13.90;99.90;;;;;;4992356;28;21748;-82
2022/10/14 04:39:30;;;;;;;30.17;16.83;;;13.90;99.90;;;;;;4986158;28;20227;-83
2022/10/14 04:41:57;;;;;;;33.80;17.43;;;13.90;99.90;;;;;;4995008;28;20221;-84
2022/10/14 04:44:24;;;;;;;30.17;16.53;;;14.00;99.90;;;;;;5005715;28;20206;-83
2022/10/14 04:46:51;;;;;;;30.20;17.30;;;14.00;99.90;;;;;;4992152;28;20575;-83
2022/10/14 04:49:18;;;;;;;29.33;15.90;;;13.90;99.90;;;;;;4981981;28;20561;-84
2022/10/14 04:51:45;;;;;;;31.07;17.40;;;13.90;99.90;;;;;;4994839;28;20744;-84
2022/10/14 04:54:12;;;;;;;26.10;16.43;;;13.90;99.90;;;;;;5008218;28;20249;-84
2022/10/14 04:56:39;;;;;;;29.00;15.67;;;13.90;99.90;;;;;;4988781;28;20202;-83
2022/10/14 04:59:06;;;;;;;30.03;16.03;;;14.00;99.90;;;;;;4993347;28;20305;-83
2022/10/14 05:01:33;;;;;;;27.97;15.57;;;14.00;99.90;;;;;;4994231;28;20552;-82
2022/10/14 05:04:00;;;;;;;27.23;14.93;;;14.00;99.90;;;;;;4994729;28;20235;-83
2022/10/14 05:06:27;;;;;;;26.80;15.80;;;14.00;99.90;;;;;;4989256;28;20200;-84
2022/10/14 05:08:54;;;;;;;25.83;15.27;;;14.00;99.90;;;;;;4989106;28;20295;-85
2022/10/14 05:11:20;;;;;;;26.37;15.03;;;14.00;99.90;;;;;;4993628;28;20226;-85
2022/10/14 05:13:48;;;;;;;26.57;15.97;;;14.00;99.90;;;;;;4988135;28;20567;-86
2022/10/14 05:16:15;;;;;;;22.67;15.00;;;13.90;99.90;;;;;;4990276;28;20286;-84
2022/10/14 05:18:41;;;;;;;30.13;14.50;;;14.00;99.90;;;;;;5004943;28;20297;-83
2022/10/14 05:21:08;;;;;;;23.53;14.00;;;14.00;99.90;;;;;;5005881;28;20225;-84
2022/10/14 05:23:35;;;;;;;27.07;14.57;;;14.10;99.90;;;;;;4992277;28;20209;-84
2022/10/14 05:26:02;;;;;;;19.30;13.23;;;14.10;99.90;;;;;;4988127;28;20235;-83
2022/10/14 05:28:29;;;;;;;20.70;13.03;;;14.10;99.90;;;;;;4995303;28;20207;-83
2022/10/14 05:30:57;;;;;;;19.47;13.23;;;14.00;99.90;;;;;;4991460;28;20234;-83
2022/10/14 05:33:23;;;;;;;19.27;11.73;;;14.00;99.90;;;;;;4990550;28;20649;-83
2022/10/14 05:35:50;;;;;;;20.27;12.97;;;14.00;99.90;;;;;;4990636;28;20207;-82
2022/10/14 05:38:25;;;;;;;15.47;11.13;;;14.10;99.90;;;;;;4990313;28;20230;-82
2022/10/14 05:40:54;;;;;;;18.07;12.20;;;14.10;99.90;;;;;;4990371;28;20219;-82
2022/10/14 05:43:21;;;;;;;17.50;11.87;;;13.90;99.90;;;;;;4993784;28;20221;-82
2022/10/14 05:45:51;;;;;;;19.23;11.90;;;14.00;99.90;;;;;;4989765;28;20647;-83
2022/10/14 05:48:18;;;;;;;19.50;11.20;;;14.00;99.90;;;;;;5002646;28;20204;-82
2022/10/14 05:50:45;;;;;;;18.17;11.20;;;14.00;99.90;;;;;;4991227;28;20838;-81
2022/10/14 05:53:12;;;;;;;18.77;12.43;;;14.10;99.90;;;;;;4975353;28;20271;-82
2022/10/14 05:55:40;;;;;;;18.97;12.03;;;14.10;99.90;;;;;;4993076;28;20661;-84
2022/10/14 05:58:08;;;;;;;21.93;12.33;;;14.10;99.90;;;;;;4982318;28;20201;-83
2022/10/14 06:00:35;;;;;;;16.70;11.67;;;14.00;99.90;;;;;;4986294;28;20207;-83
2022/10/14 06:03:02;;;;;;;21.07;11.90;;;14.10;99.90;;;;;;4992490;28;20206;-83
2022/10/14 06:05:29;;;;;;;19.10;11.53;;;14.10;99.90;;;;;;4993763;28;20285;-82
2022/10/14 06:07:56;;;;;;;18.27;11.77;;;14.00;99.90;;;;;;4982364;28;20737;-83
2022/10/14 06:10:22;;;;;;;17.57;11.87;;;14.10;99.90;;;;;;5001841;28;20213;-84
2022/10/14 06:12:49;;;;;;;17.17;11.57;;;14.00;99.90;;;;;;4994721;28;20198;-82
2022/10/14 06:15:16;;;;;;;18.17;11.50;;;14.10;99.90;;;;;;4992969;28;20285;-83
2022/10/14 06:17:43;;;;;;;17.33;11.77;;;14.10;99.90;;;;;;4993310;28;20748;-83
2022/10/14 06:20:10;;;;;;;15.87;11.37;;;14.10;99.90;;;;;;4992897;28;20281;-84
2022/10/14 06:22:37;;;;;;;15.93;11.43;;;14.10;99.90;;;;;;4987678;28;20303;-83
2022/10/14 06:25:04;;;;;;;15.33;11.03;;;14.10;99.90;;;;;;4988159;28;20568;-82
2022/10/14 06:27:30;;;;;;;17.53;11.53;;;14.10;99.90;;;;;;4988302;28;20290;-82
2022/10/14 06:29:57;;;;;;;16.50;11.13;;;14.10;99.90;;;;;;4993240;28;20564;-82
2022/10/14 06:32:24;;;;;;;16.70;11.33;;;14.10;99.90;;;;;;4988743;28;20745;-83
2022/10/14 06:34:51;;;;;;;17.33;11.00;;;14.00;99.90;;;;;;4984719;28;20580;-83
2022/10/14 06:37:18;;;;;;;14.23;10.50;;;14.10;99.90;;;;;;4991562;28;20707;-83
2022/10/14 06:39:44;;;;;;;16.23;10.60;;;14.10;99.90;;;;;;4985819;28;20752;-82
2022/10/14 06:42:11;;;;;;;16.23;11.27;;;14.10;99.90;;;;;;4983748;28;20214;-82
2022/10/14 06:44:39;;;;;;;16.20;10.50;;;14.20;99.90;;;;;;4993457;28;20221;-82
2022/10/14 06:47:06;;;;;;;15.17;10.73;;;14.10;99.90;;;;;;5003133;28;20775;-81
2022/10/14 06:49:34;;;;;;;13.50;10.67;;;14.10;99.90;;;;;;4982822;28;20209;-82
2022/10/14 06:52:01;;;;;;;12.43;10.33;;;14.10;99.90;;;;;;4991065;28;20300;-83
2022/10/14 06:54:28;;;;;;;14.23;10.33;;;14.20;99.90;;;;;;4990840;28;20217;-82
2022/10/14 06:56:55;;;;;;;13.73;10.90;;;14.20;99.90;;;;;;4988014;28;20220;-83
2022/10/14 06:59:22;;;;;;;15.57;11.53;;;14.20;99.90;;;;;;4990053;28;20207;-81
2022/10/14 07:01:49;;;;;;;15.70;10.53;;;14.20;99.90;;;;;;4992125;28;20498;-84
2022/10/14 07:04:17;;;;;;;14.73;10.87;;;14.20;99.90;;;;;;4990591;28;20208;-82
2022/10/14 07:06:44;;;;;;;12.77;9.53;;;14.20;99.90;;;;;;4987396;28;20198;-80
2022/10/14 07:09:11;;;;;;;13.67;9.23;;;14.20;99.90;;;;;;4984801;28;20305;-84
2022/10/14 07:11:37;;;;;;;16.07;10.87;;;14.20;99.90;;;;;;4980098;28;20308;-80
2022/10/14 07:14:06;;;;;;;13.60;9.33;;;14.10;99.90;;;;;;5000164;28;20202;-83
2022/10/14 07:16:33;;;;;;;12.80;9.47;;;14.20;99.90;;;;;;4983343;28;20225;-84
2022/10/14 07:19:00;;;;;;;12.43;8.60;;;14.20;99.90;;;;;;4986332;28;20618;-78
2022/10/14 07:21:26;;;;;;;11.47;8.80;;;14.20;99.90;;;;;;4983673;28;20224;-78
2022/10/14 07:23:54;;;;;;;13.73;9.63;;;14.30;99.90;;;;;;4997064;28;20191;-78
2022/10/14 07:26:21;;;;;;;12.40;8.50;;;14.20;99.90;;;;;;4997232;28;20215;-78
2022/10/14 07:28:47;;;;;;;11.77;8.40;;;14.20;99.90;;;;;;5001937;28;20536;-78
2022/10/14 07:31:14;;;;;;;12.07;8.37;;;14.20;99.90;;;;;;4968730;28;20261;-78
2022/10/14 07:33:41;;;;;;;12.43;9.17;;;14.20;99.90;;;;;;4987465;28;20285;-77
2022/10/14 07:36:14;;;;;;;12.23;9.23;;;14.30;99.90;;;;;;4985013;28;20201;-78
2022/10/14 07:38:47;;;;;;;12.80;9.70;;;14.20;99.90;;;;;;4984849;28;20219;-78
2022/10/14 07:41:20;;;;;;;11.90;9.10;;;14.30;99.90;;;;;;4953794;28;20198;-78
2022/10/14 07:43:50;;;;;;;11.37;8.93;;;14.20;99.90;;;;;;4984476;28;20215;-78
2022/10/14 07:46:31;;;;;;;16.83;9.83;;;14.30;99.90;;;;;;4987525;28;20241;-77
2022/10/14 07:49:06;;;;;;;11.27;9.13;;;14.30;99.90;;;;;;4990165;28;20209;-78
2022/10/14 07:51:35;;;;;;;14.27;9.43;;;14.40;99.90;;;;;;4991697;28;20216;-77
2022/10/14 07:54:04;;;;;;;11.43;9.77;;;14.40;99.90;;;;;;4987842;28;20233;-77
2022/10/14 07:56:33;;;;;;;14.50;10.23;;;14.40;99.90;;;;;;4990457;28;20213;-77
2022/10/14 07:59:00;;;;;;;13.00;9.27;;;14.40;99.90;;;;;;4989490;28;20258;-77
2022/10/14 08:01:27;;;;;;;13.13;9.50;;;14.40;99.90;;;;;;4981214;28;20228;-77
2022/10/14 08:03:54;;;;;;;15.03;9.83;;;14.40;99.90;;;;;;4993437;28;20207;-76
2022/10/14 08:06:21;;;;;;;13.90;9.90;;;14.40;99.90;;;;;;4987634;28;20235;-78
2022/10/14 08:08:48;;;;;;;12.17;9.17;;;14.40;99.90;;;;;;4993705;28;20207;-78
2022/10/14 08:11:21;;;;;;;14.30;9.43;;;14.40;99.90;;;;;;4986946;28;20202;-77
2022/10/14 08:13:48;;;;;;;11.57;9.10;;;14.40;99.90;;;;;;4993127;28;20688;-78
2022/10/14 08:16:38;;;;;;;13.90;9.73;;;14.40;99.90;;;;;;4991212;28;20580;-77
2022/10/14 08:19:10;;;;;;;14.67;9.27;;;14.40;99.90;;;;;;4987420;28;20203;-77
2022/10/14 08:21:41;;;;;;;11.97;8.87;;;14.30;99.90;;;;;;4985788;28;20217;-78
2022/10/14 08:24:09;;;;;;;11.03;9.03;;;14.40;99.90;;;;;;4989681;28;20205;-78
2022/10/14 08:26:59;;;;;;;11.87;9.23;;;14.50;99.90;;;;;;4988262;28;20221;-78
2022/10/14 08:29:26;;;;;;;11.87;8.20;;;14.50;99.90;;;;;;4990789;28;20206;-78
2022/10/14 08:31:54;;;;;;;11.43;9.13;;;14.60;99.90;;;;;;5003734;28;20225;-78
2022/10/14 08:34:23;;;;;;;12.87;8.87;;;14.50;99.90;;;;;;5004744;28;20211;-77
2022/10/14 08:36:50;;;;;;;14.73;9.70;;;14.50;99.90;;;;;;4989065;28;20254;-78
2022/10/14 08:39:18;;;;;;;12.17;9.17;;;14.50;99.90;;;;;;4986130;28;20244;-78
2022/10/14 08:42:16;;;;;;;13.13;10.23;;;14.50;99.90;;;;;;5000214;28;20223;-78
2022/10/14 08:45:14;;;;;;;13.33;9.83;;;14.50;99.90;;;;;;4986201;28;20253;-79
2022/10/14 08:47:45;;;;;;;11.00;8.27;;;14.60;99.90;;;;;;4988428;28;20660;-79
2022/10/14 08:50:22;;;;;;;12.13;9.10;;;14.60;99.90;;;;;;4989235;28;20206;-78
2022/10/14 08:52:58;;;;;;;12.13;9.83;;;14.60;99.90;;;;;;4989843;28;20554;-78
2022/10/14 08:55:40;;;;;;;16.53;9.73;;;14.60;99.90;;;;;;4990418;28;20208;-78
2022/10/14 08:58:17;;;;;;;13.23;9.43;;;14.50;99.90;;;;;;4984067;28;20290;-78
2022/10/14 09:00:48;;;;;;;13.47;10.23;;;14.60;99.90;;;;;;4991369;28;20203;-78
2022/10/14 09:03:31;;;;;;;11.87;9.70;;;14.70;99.90;;;;;;4992335;28;20225;-77
2022/10/14 09:06:05;;;;;;;12.63;10.53;;;14.70;99.90;;;;;;4992428;28;20260;-79
2022/10/14 09:08:46;;;;;;;13.77;10.37;;;14.80;99.90;;;;;;4990664;28;20242;-78
2022/10/14 09:11:18;;;;;;;14.40;10.57;;;14.80;99.90;;;;;;4988697;28;20206;-79
2022/10/14 09:13:58;;;;;;;12.87;9.60;;;14.80;99.90;;;;;;4988218;28;20205;-78
2022/10/14 09:16:33;;;;;;;13.37;9.87;;;14.80;99.90;;;;;;4987414;28;20203;-79
2022/10/14 09:19:03;;;;;;;13.47;10.37;;;14.80;99.90;;;;;;4991345;28;20651;-78
2022/10/14 09:21:36;;;;;;;14.00;10.23;;;14.80;99.90;;;;;;4990634;28;20212;-77
2022/10/14 09:24:22;;;;;;;16.77;10.93;;;14.80;99.90;;;;;;4999051;28;20239;-79
2022/10/14 09:27:12;;;;;;;13.60;10.63;;;14.90;99.90;;;;;;5006210;28;20254;-78
2022/10/14 09:29:47;;;;;;;13.87;10.27;;;14.80;99.90;;;;;;4988524;28;20197;-78
2022/10/14 09:32:40;;;;;;;14.60;10.77;;;14.90;99.90;;;;;;4986537;28;20209;-76
2022/10/14 09:35:28;;;;;;;14.53;10.67;;;14.80;99.90;;;;;;4987227;28;20585;-77
2022/10/14 09:37:55;;;;;;;13.47;10.60;;;14.90;99.90;;;;;;4998333;28;20199;-78
2022/10/14 09:40:32;;;;;;;15.10;11.53;;;14.90;99.90;;;;;;4987175;28;20242;-77
2022/10/14 09:43:10;;;;;;;15.80;12.17;;;14.90;99.90;;;;;;4985979;28;20206;-78
2022/10/14 09:45:58;;;;;;;11.63;10.30;;;15.00;99.90;;;;;;5007173;28;20337;-78
2022/10/14 09:48:31;;;;;;;13.43;10.93;;;14.90;99.90;;;;;;4978531;28;20204;-79
2022/10/14 09:51:00;;;;;;;13.27;10.27;;;15.00;99.90;;;;;;4986493;28;20298;-78
2022/10/14 09:53:32;;;;;;;15.97;11.13;;;15.10;99.90;;;;;;4989178;28;20218;-78
2022/10/14 09:56:01;;;;;;;13.00;10.37;;;15.10;99.90;;;;;;4988550;28;20294;-79
2022/10/14 09:58:37;;;;;;;13.60;11.10;;;15.10;99.90;;;;;;4987199;28;20537;-79
2022/10/14 10:01:07;;;;;;;12.50;10.57;;;15.20;99.90;;;;;;4985095;28;20681;-78
2022/10/14 10:03:39;;;;;;;13.53;11.27;;;15.30;99.90;;;;;;4986495;28;20210;-77
2022/10/14 10:06:09;;;;;;;14.77;11.43;;;15.20;99.90;;;;;;4983290;28;20205;-77
2022/10/14 10:08:40;;;;;;;13.37;11.00;;;15.20;99.90;;;;;;4987392;28;20243;-77
2022/10/14 10:11:12;;;;;;;13.03;10.17;;;15.20;99.90;;;;;;4976132;28;20201;-77
2022/10/14 10:13:45;;;;;;;16.03;11.10;;;15.20;99.90;;;;;;4988954;28;20719;-78
2022/10/14 10:16:18;;;;;;;12.27;10.37;;;15.30;99.90;;;;;;4984664;28;20195;-79
2022/10/14 10:18:45;;;;;;;11.50;9.67;;;15.20;99.90;;;;;;4986186;28;20244;-79
2022/10/14 10:21:25;;;;;;;10.73;9.53;;;15.20;99.90;;;;;;4990677;28;20212;-78
2022/10/14 10:24:10;;;;;;;11.27;10.03;;;15.30;99.90;;;;;;4986283;28;20233;-78
2022/10/14 10:26:37;;;;;;;11.77;10.53;;;15.30;99.90;;;;;;5004236;28;20620;-78
2022/10/14 10:29:04;;;;;;;10.43;9.33;;;15.30;99.90;;;;;;4966446;28;20199;-78
2022/10/14 10:32:00;;;;;;;13.27;10.20;;;15.30;99.90;;;;;;4985455;28;20281;-79
2022/10/14 10:34:39;;;;;;;10.63;9.37;;;15.30;99.90;;;;;;4986446;28;21949;-78
2022/10/14 10:37:22;;;;;;;10.77;9.63;;;15.20;99.90;;;;;;4984619;28;20214;-77
2022/10/14 10:40:11;;;;;;;11.77;9.57;;;15.30;99.90;;;;;;5004206;28;20220;-77
2022/10/14 10:43:12;;;;;;;11.17;9.97;;;15.30;99.90;;;;;;4986155;28;20213;-78
2022/10/14 10:45:42;;;;;;;11.07;8.87;;;15.40;99.90;;;;;;4983419;28;20233;-78
2022/10/14 10:48:24;;;;;;;10.90;9.13;;;15.30;99.90;;;;;;4986600;28;20211;-78
2022/10/14 10:51:21;;;;;;;10.10;9.03;;;15.30;99.90;;;;;;4989685;28;20327;-77
2022/10/14 10:54:02;;;;;;;11.17;8.53;;;15.30;99.90;;;;;;4986650;28;20291;-78
2022/10/14 10:56:51;;;;;;;8.97;8.07;;;15.30;99.90;;;;;;4984997;28;20288;-77
2022/10/14 10:59:46;;;;;;;10.73;8.63;;;15.20;99.90;;;;;;4983472;28;20235;-78
2022/10/14 11:02:50;;;;;;;10.30;8.33;;;15.30;99.90;;;;;;4982041;28;20259;-77
2022/10/14 11:05:35;;;;;;;10.87;8.97;;;15.20;99.90;;;;;;4984602;28;20235;-78
2022/10/14 11:14:49;;;;;;;8.40;7.37;;;15.30;99.90;;;;;;4980831;28;20211;-76
2022/10/14 11:17:51;;;;;;;8.73;7.80;;;15.30;99.90;;;;;;4989222;28;20290;-76
2022/10/14 11:20:27;;;;;;;6.80;5.83;;;15.30;99.90;;;;;;4983081;28;20255;-77
2022/10/14 11:23:24;;;;;;;8.13;6.60;;;15.30;99.90;;;;;;4991930;28;20671;-78
2022/10/14 11:26:07;;;;;;;8.83;6.03;;;15.30;99.90;;;;;;4976738;28;20211;-79
2022/10/14 11:29:00;;;;;;;5.73;5.13;;;15.30;99.90;;;;;;4981947;28;20236;-79
2022/10/14 11:31:50;;;;;;;6.53;5.80;;;15.30;99.90;;;;;;4988014;28;20538;-77
2022/10/14 11:34:44;;;;;;;5.90;5.30;;;15.20;99.90;;;;;;4994181;28;20210;-79
2022/10/14 11:37:11;;;;;;;6.57;5.23;;;15.20;99.90;;;;;;4987462;28;20291;-82
2022/10/14 11:39:48;;;;;;;6.70;5.77;;;15.10;99.90;;;;;;4984154;28;20721;-80
2022/10/14 11:42:24;;;;;;;7.20;5.33;;;15.20;99.90;;;;;;4991969;28;20588;-78
2022/10/14 11:45:10;;;;;;;6.77;5.87;;;15.20;99.90;;;;;;4992257;28;20295;-79
2022/10/14 11:47:39;;;;;;;7.53;6.47;;;15.20;99.90;;;;;;4985929;28;20215;-79
2022/10/14 11:50:22;;;;;;;6.13;5.47;;;15.30;99.90;;;;;;4987088;28;20194;-78
2022/10/14 11:53:00;;;;;;;6.00;5.40;;;15.30;99.90;;;;;;4987788;28;20649;-78
2022/10/14 11:55:33;;;;;;;7.00;5.60;;;15.30;99.90;;;;;;5005274;28;20207;-78
2022/10/14 11:58:09;;;;;;;7.57;5.50;;;15.30;99.90;;;;;;4987958;28;20192;-78
2022/10/14 12:00:37;;;;;;;6.40;5.70;;;15.30;99.90;;;;;;4984844;28;20578;-78
2022/10/14 12:03:25;;;;;;;6.20;5.60;;;15.20;99.90;;;;;;4986629;28;20214;-78
2022/10/14 12:06:00;;;;;;;6.33;5.27;;;15.30;99.90;;;;;;4986487;28;20288;-79
2022/10/14 12:08:32;;;;;;;7.87;6.13;;;15.30;99.90;;;;;;4985440;28;20207;-77
2022/10/14 12:11:28;;;;;;;6.23;5.63;;;15.30;99.90;;;;;;4987950;28;20237;-78
2022/10/14 12:14:12;;;;;;;7.83;5.63;;;15.30;99.90;;;;;;4988903;28;20581;-77
2022/10/14 12:16:42;;;;;;;7.27;5.87;;;15.40;99.90;;;;;;4988446;28;20206;-78
2022/10/14 12:19:11;;;;;;;8.07;5.83;;;15.50;99.90;;;;;;5000395;28;20207;-77
2022/10/14 12:21:57;;;;;;;8.57;5.73;;;15.50;99.90;;;;;;4983224;28;20212;-78
2022/10/14 12:24:30;;;;;;;6.60;5.90;;;15.50;99.90;;;;;;4982234;28;20234;-79
2022/10/14 12:27:00;;;;;;;7.33;5.53;;;15.50;99.90;;;;;;4988757;28;20216;-77
2022/10/14 12:29:35;;;;;;;7.27;6.20;;;15.40;99.90;;;;;;4985842;28;20640;-78
2022/10/14 12:32:02;;;;;;;6.57;5.67;;;15.50;99.90;;;;;;4989746;28;20198;-77
2022/10/14 12:34:35;;;;;;;8.53;6.67;;;15.60;99.90;;;;;;4987493;28;20204;-77
2022/10/14 12:37:23;;;;;;;8.67;6.07;;;15.60;99.90;;;;;;5002232;28;20288;-78
2022/10/14 12:40:05;;;;;;;7.57;5.90;;;15.70;99.90;;;;;;4979275;28;20629;-79
2022/10/14 12:42:57;;;;;;;8.30;6.07;;;15.60;99.90;;;;;;4988128;28;20207;-79
2022/10/14 12:45:27;;;;;;;7.93;5.50;;;15.70;99.90;;;;;;4988532;28;20190;-80
2022/10/14 12:48:11;;;;;;;7.60;6.60;;;15.70;99.90;;;;;;4986641;28;20206;-80
2022/10/14 12:50:45;;;;;;;6.97;6.10;;;15.80;99.90;;;;;;5003099;28;20200;-80
2022/10/14 12:53:31;;;;;;;6.93;5.70;;;15.90;99.90;;;;;;4982052;28;20203;-80
2022/10/14 12:56:03;;;;;;;6.90;5.50;;;15.80;99.90;;;;;;4987310;28;20228;-79
2022/10/14 12:58:56;;;;;;;5.40;4.67;;;15.70;99.90;;;;;;4986773;28;20243;-79
2022/10/14 13:01:23;;;;;;;5.80;4.97;;;15.80;99.90;;;;;;4975535;28;20272;-78
2022/10/14 13:04:00;;;;;;;6.53;5.77;;;15.70;99.90;;;;;;4987290;28;20304;-78
2022/10/14 13:06:34;;;;;;;7.10;5.23;;;15.70;99.90;;;;;;5005718;28;20361;-77